sensor_id;sensor_type;location;lat;lon;timestamp;P1;durP1;ratioP1;P2;durP2;ratioP2
46971;SDS011;32722;43.486;2.766;2022-09-01T00:01:04;11.35;;;6.00;;
46971;SDS011;32722;43.486;2.766;2022-09-01T00:03:32;9.07;;;5.22;;
46971;SDS011;32722;43.486;2.766;2022-09-01T00:05:59;8.82;;;6.18;;
46971;SDS011;32722;43.486;2.766;2022-09-01T00:08:25;7.47;;;6.00;;
46971;SDS011;32722;43.486;2.766;2022-09-01T00:10:51;7.03;;;5.18;;
46971;SDS011;32722;43.486;2.766;2022-09-01T00:13:17;11.98;;;6.68;;
46971;SDS011;32722;43.486;2.766;2022-09-01T00:15:44;8.63;;;5.88;;
46971;SDS011;32722;43.486;2.766;2022-09-01T00:18:10;9.68;;;5.80;;
46971;SDS011;32722;43.486;2.766;2022-09-01T00:20:37;10.43;;;6.45;;
46971;SDS011;32722;43.486;2.766;2022-09-01T00:23:04;7.88;;;6.18;;
46971;SDS011;32722;43.486;2.766;2022-09-01T00:25:30;6.47;;;5.75;;
46971;SDS011;32722;43.486;2.766;2022-09-01T00:27:56;8.35;;;6.50;;
46971;SDS011;32722;43.486;2.766;2022-09-01T00:30:24;10.18;;;6.38;;
46971;SDS011;32722;43.486;2.766;2022-09-01T00:32:50;7.93;;;6.30;;
46971;SDS011;32722;43.486;2.766;2022-09-01T00:35:17;9.10;;;6.40;;
46971;SDS011;32722;43.486;2.766;2022-09-01T00:37:43;11.02;;;6.90;;
46971;SDS011;32722;43.486;2.766;2022-09-01T00:40:11;9.20;;;6.18;;
46971;SDS011;32722;43.486;2.766;2022-09-01T00:42:38;8.20;;;6.32;;
46971;SDS011;32722;43.486;2.766;2022-09-01T00:45:05;7.75;;;6.47;;
46971;SDS011;32722;43.486;2.766;2022-09-01T00:47:32;10.70;;;6.15;;
46971;SDS011;32722;43.486;2.766;2022-09-01T00:49:59;9.60;;;6.93;;
46971;SDS011;32722;43.486;2.766;2022-09-01T00:52:30;8.77;;;6.25;;
46971;SDS011;32722;43.486;2.766;2022-09-01T00:57:23;10.20;;;6.30;;
46971;SDS011;32722;43.486;2.766;2022-09-01T00:59:57;10.68;;;6.50;;
46971;SDS011;32722;43.486;2.766;2022-09-01T01:02:24;9.40;;;7.65;;
46971;SDS011;32722;43.486;2.766;2022-09-01T01:04:50;12.93;;;6.60;;
46971;SDS011;32722;43.486;2.766;2022-09-01T01:07:20;6.95;;;6.25;;
46971;SDS011;32722;43.486;2.766;2022-09-01T01:09:46;9.77;;;6.88;;
46971;SDS011;32722;43.486;2.766;2022-09-01T01:12:13;8.45;;;6.53;;
46971;SDS011;32722;43.486;2.766;2022-09-01T01:14:43;10.30;;;6.82;;
46971;SDS011;32722;43.486;2.766;2022-09-01T01:17:10;9.23;;;6.50;;
46971;SDS011;32722;43.486;2.766;2022-09-01T01:19:41;13.85;;;6.30;;
46971;SDS011;32722;43.486;2.766;2022-09-01T01:22:28;8.32;;;6.97;;
46971;SDS011;32722;43.486;2.766;2022-09-01T01:25:16;13.90;;;7.18;;
46971;SDS011;32722;43.486;2.766;2022-09-01T01:27:43;10.38;;;6.97;;
46971;SDS011;32722;43.486;2.766;2022-09-01T01:30:10;11.88;;;7.53;;
46971;SDS011;32722;43.486;2.766;2022-09-01T01:32:37;10.73;;;7.07;;
46971;SDS011;32722;43.486;2.766;2022-09-01T01:35:07;11.60;;;7.07;;
46971;SDS011;32722;43.486;2.766;2022-09-01T01:37:36;11.63;;;8.02;;
46971;SDS011;32722;43.486;2.766;2022-09-01T01:40:03;9.00;;;6.97;;
46971;SDS011;32722;43.486;2.766;2022-09-01T01:42:31;11.35;;;7.10;;
46971;SDS011;32722;43.486;2.766;2022-09-01T01:44:57;12.18;;;7.47;;
46971;SDS011;32722;43.486;2.766;2022-09-01T01:47:24;7.82;;;6.68;;
46971;SDS011;32722;43.486;2.766;2022-09-01T01:49:50;9.07;;;7.40;;
46971;SDS011;32722;43.486;2.766;2022-09-01T01:52:18;11.18;;;7.25;;
46971;SDS011;32722;43.486;2.766;2022-09-01T01:54:45;10.07;;;7.70;;
46971;SDS011;32722;43.486;2.766;2022-09-01T01:57:11;11.15;;;7.88;;
46971;SDS011;32722;43.486;2.766;2022-09-01T01:59:42;10.35;;;7.10;;
46971;SDS011;32722;43.486;2.766;2022-09-01T02:02:08;7.28;;;6.45;;
46971;SDS011;32722;43.486;2.766;2022-09-01T02:04:37;11.48;;;7.40;;
46971;SDS011;32722;43.486;2.766;2022-09-01T02:07:05;9.20;;;7.68;;
46971;SDS011;32722;43.486;2.766;2022-09-01T02:09:34;11.70;;;7.78;;
46971;SDS011;32722;43.486;2.766;2022-09-01T02:12:03;9.13;;;7.00;;
46971;SDS011;32722;43.486;2.766;2022-09-01T02:14:32;8.68;;;7.32;;
46971;SDS011;32722;43.486;2.766;2022-09-01T02:16:58;11.00;;;7.53;;
46971;SDS011;32722;43.486;2.766;2022-09-01T02:19:27;11.77;;;7.20;;
46971;SDS011;32722;43.486;2.766;2022-09-01T02:21:53;11.40;;;6.95;;
46971;SDS011;32722;43.486;2.766;2022-09-01T02:24:20;9.88;;;7.22;;
46971;SDS011;32722;43.486;2.766;2022-09-01T02:26:46;9.45;;;7.15;;
46971;SDS011;32722;43.486;2.766;2022-09-01T02:29:15;12.35;;;7.65;;
46971;SDS011;32722;43.486;2.766;2022-09-01T02:31:47;11.32;;;7.00;;
46971;SDS011;32722;43.486;2.766;2022-09-01T02:34:14;12.00;;;7.40;;
46971;SDS011;32722;43.486;2.766;2022-09-01T02:36:47;10.00;;;6.40;;
46971;SDS011;32722;43.486;2.766;2022-09-01T02:39:14;9.40;;;6.82;;
46971;SDS011;32722;43.486;2.766;2022-09-01T02:41:41;8.57;;;6.70;;
46971;SDS011;32722;43.486;2.766;2022-09-01T02:44:07;12.10;;;7.15;;
46971;SDS011;32722;43.486;2.766;2022-09-01T02:46:36;9.40;;;7.57;;
46971;SDS011;32722;43.486;2.766;2022-09-01T02:49:05;9.38;;;6.70;;
46971;SDS011;32722;43.486;2.766;2022-09-01T02:51:39;9.43;;;6.70;;
46971;SDS011;32722;43.486;2.766;2022-09-01T02:54:05;8.85;;;7.20;;
46971;SDS011;32722;43.486;2.766;2022-09-01T02:56:32;10.32;;;6.82;;
46971;SDS011;32722;43.486;2.766;2022-09-01T02:58:58;10.63;;;7.00;;
46971;SDS011;32722;43.486;2.766;2022-09-01T03:01:29;10.30;;;7.07;;
46971;SDS011;32722;43.486;2.766;2022-09-01T03:04:00;12.38;;;7.30;;
46971;SDS011;32722;43.486;2.766;2022-09-01T03:06:27;8.60;;;7.25;;
46971;SDS011;32722;43.486;2.766;2022-09-01T03:08:56;11.50;;;7.53;;
46971;SDS011;32722;43.486;2.766;2022-09-01T03:11:26;8.68;;;6.93;;
46971;SDS011;32722;43.486;2.766;2022-09-01T03:13:53;10.77;;;7.13;;
46971;SDS011;32722;43.486;2.766;2022-09-01T03:16:19;9.60;;;7.15;;
46971;SDS011;32722;43.486;2.766;2022-09-01T03:18:46;9.38;;;7.65;;
46971;SDS011;32722;43.486;2.766;2022-09-01T03:21:13;12.02;;;7.55;;
46971;SDS011;32722;43.486;2.766;2022-09-01T03:23:45;9.95;;;6.80;;
46971;SDS011;32722;43.486;2.766;2022-09-01T03:26:11;8.63;;;6.65;;
46971;SDS011;32722;43.486;2.766;2022-09-01T03:28:38;9.18;;;6.53;;
46971;SDS011;32722;43.486;2.766;2022-09-01T03:31:04;8.05;;;6.60;;
46971;SDS011;32722;43.486;2.766;2022-09-01T03:33:31;7.85;;;6.90;;
46971;SDS011;32722;43.486;2.766;2022-09-01T03:35:58;10.18;;;7.45;;
46971;SDS011;32722;43.486;2.766;2022-09-01T03:38:24;10.63;;;7.05;;
46971;SDS011;32722;43.486;2.766;2022-09-01T03:40:51;9.13;;;6.88;;
46971;SDS011;32722;43.486;2.766;2022-09-01T03:43:18;9.70;;;7.40;;
46971;SDS011;32722;43.486;2.766;2022-09-01T03:45:49;9.20;;;6.78;;
46971;SDS011;32722;43.486;2.766;2022-09-01T03:48:15;8.18;;;7.10;;
46971;SDS011;32722;43.486;2.766;2022-09-01T03:50:42;10.93;;;6.97;;
46971;SDS011;32722;43.486;2.766;2022-09-01T03:53:18;8.32;;;6.70;;
46971;SDS011;32722;43.486;2.766;2022-09-01T03:55:47;13.23;;;7.30;;
46971;SDS011;32722;43.486;2.766;2022-09-01T03:58:14;12.82;;;7.22;;
46971;SDS011;32722;43.486;2.766;2022-09-01T04:00:44;9.85;;;7.47;;
46971;SDS011;32722;43.486;2.766;2022-09-01T04:03:11;10.60;;;7.05;;
46971;SDS011;32722;43.486;2.766;2022-09-01T04:05:40;8.48;;;7.03;;
46971;SDS011;32722;43.486;2.766;2022-09-01T04:08:07;13.38;;;7.32;;
46971;SDS011;32722;43.486;2.766;2022-09-01T04:10:36;8.05;;;7.25;;
46971;SDS011;32722;43.486;2.766;2022-09-01T04:13:08;9.23;;;7.38;;
46971;SDS011;32722;43.486;2.766;2022-09-01T04:15:36;9.65;;;6.63;;
46971;SDS011;32722;43.486;2.766;2022-09-01T04:18:02;8.27;;;6.63;;
46971;SDS011;32722;43.486;2.766;2022-09-01T04:20:33;8.90;;;7.00;;
46971;SDS011;32722;43.486;2.766;2022-09-01T04:23:12;7.75;;;6.97;;
46971;SDS011;32722;43.486;2.766;2022-09-01T04:25:41;10.18;;;6.85;;
46971;SDS011;32722;43.486;2.766;2022-09-01T04:28:07;9.82;;;6.90;;
46971;SDS011;32722;43.486;2.766;2022-09-01T04:30:47;11.10;;;7.15;;
46971;SDS011;32722;43.486;2.766;2022-09-01T04:33:14;7.55;;;6.75;;
46971;SDS011;32722;43.486;2.766;2022-09-01T04:35:41;9.35;;;7.30;;
46971;SDS011;32722;43.486;2.766;2022-09-01T04:38:07;10.68;;;7.60;;
46971;SDS011;32722;43.486;2.766;2022-09-01T04:40:39;10.80;;;7.00;;
46971;SDS011;32722;43.486;2.766;2022-09-01T04:43:06;9.70;;;7.05;;
46971;SDS011;32722;43.486;2.766;2022-09-01T04:45:33;9.77;;;7.10;;
46971;SDS011;32722;43.486;2.766;2022-09-01T04:48:01;10.20;;;7.20;;
46971;SDS011;32722;43.486;2.766;2022-09-01T04:50:27;10.10;;;7.47;;
46971;SDS011;32722;43.486;2.766;2022-09-01T04:52:56;11.13;;;7.07;;
46971;SDS011;32722;43.486;2.766;2022-09-01T04:55:25;11.23;;;7.63;;
46971;SDS011;32722;43.486;2.766;2022-09-01T04:57:53;11.00;;;7.28;;
46971;SDS011;32722;43.486;2.766;2022-09-01T05:00:22;8.77;;;6.80;;
46971;SDS011;32722;43.486;2.766;2022-09-01T05:02:55;10.35;;;7.20;;
46971;SDS011;32722;43.486;2.766;2022-09-01T05:05:27;11.38;;;7.30;;
46971;SDS011;32722;43.486;2.766;2022-09-01T05:07:53;10.23;;;6.75;;
46971;SDS011;32722;43.486;2.766;2022-09-01T05:10:20;10.70;;;6.97;;
46971;SDS011;32722;43.486;2.766;2022-09-01T05:12:46;8.02;;;6.15;;
46971;SDS011;32722;43.486;2.766;2022-09-01T05:15:12;8.60;;;6.75;;
46971;SDS011;32722;43.486;2.766;2022-09-01T05:17:39;11.90;;;6.68;;
46971;SDS011;32722;43.486;2.766;2022-09-01T05:20:05;8.27;;;6.70;;
46971;SDS011;32722;43.486;2.766;2022-09-01T05:22:33;8.10;;;6.25;;
46971;SDS011;32722;43.486;2.766;2022-09-01T05:24:59;9.27;;;6.88;;
46971;SDS011;32722;43.486;2.766;2022-09-01T05:27:37;10.63;;;6.45;;
46971;SDS011;32722;43.486;2.766;2022-09-01T05:30:04;9.00;;;5.90;;
46971;SDS011;32722;43.486;2.766;2022-09-01T05:32:36;12.27;;;6.50;;
46971;SDS011;32722;43.486;2.766;2022-09-01T05:35:04;8.48;;;6.38;;
46971;SDS011;32722;43.486;2.766;2022-09-01T05:37:32;16.17;;;6.82;;
46971;SDS011;32722;43.486;2.766;2022-09-01T05:40:00;8.27;;;6.40;;
46971;SDS011;32722;43.486;2.766;2022-09-01T05:42:26;9.63;;;6.30;;
46971;SDS011;32722;43.486;2.766;2022-09-01T05:44:52;9.60;;;6.15;;
46971;SDS011;32722;43.486;2.766;2022-09-01T05:47:19;7.45;;;6.20;;
46971;SDS011;32722;43.486;2.766;2022-09-01T05:49:46;6.75;;;5.80;;
46971;SDS011;32722;43.486;2.766;2022-09-01T05:52:13;8.35;;;6.35;;
46971;SDS011;32722;43.486;2.766;2022-09-01T05:54:40;7.93;;;5.47;;
46971;SDS011;32722;43.486;2.766;2022-09-01T05:57:06;6.47;;;5.70;;
46971;SDS011;32722;43.486;2.766;2022-09-01T05:59:32;6.95;;;5.20;;
46971;SDS011;32722;43.486;2.766;2022-09-01T06:01:58;8.82;;;5.60;;
46971;SDS011;32722;43.486;2.766;2022-09-01T06:04:25;6.47;;;5.78;;
46971;SDS011;32722;43.486;2.766;2022-09-01T06:06:52;6.22;;;5.43;;
46971;SDS011;32722;43.486;2.766;2022-09-01T06:09:21;7.70;;;5.57;;
46971;SDS011;32722;43.486;2.766;2022-09-01T06:11:47;7.13;;;5.82;;
46971;SDS011;32722;43.486;2.766;2022-09-01T06:14:14;7.80;;;6.55;;
46971;SDS011;32722;43.486;2.766;2022-09-01T06:16:41;6.65;;;5.82;;
46971;SDS011;32722;43.486;2.766;2022-09-01T06:19:08;6.30;;;5.70;;
46971;SDS011;32722;43.486;2.766;2022-09-01T06:21:35;9.02;;;6.10;;
46971;SDS011;32722;43.486;2.766;2022-09-01T06:24:03;8.30;;;5.47;;
46971;SDS011;32722;43.486;2.766;2022-09-01T06:26:32;5.38;;;4.88;;
46971;SDS011;32722;43.486;2.766;2022-09-01T06:29:00;6.45;;;5.38;;
46971;SDS011;32722;43.486;2.766;2022-09-01T06:31:28;6.88;;;5.10;;
46971;SDS011;32722;43.486;2.766;2022-09-01T06:36:24;7.88;;;5.80;;
46971;SDS011;32722;43.486;2.766;2022-09-01T06:38:50;9.45;;;5.65;;
46971;SDS011;32722;43.486;2.766;2022-09-01T06:41:17;7.22;;;5.63;;
46971;SDS011;32722;43.486;2.766;2022-09-01T06:43:47;9.80;;;5.65;;
46971;SDS011;32722;43.486;2.766;2022-09-01T06:46:14;9.48;;;5.68;;
46971;SDS011;32722;43.486;2.766;2022-09-01T06:48:41;5.65;;;5.05;;
46971;SDS011;32722;43.486;2.766;2022-09-01T06:51:15;9.25;;;5.55;;
46971;SDS011;32722;43.486;2.766;2022-09-01T06:56:07;7.93;;;5.43;;
46971;SDS011;32722;43.486;2.766;2022-09-01T06:58:37;5.70;;;5.13;;
46971;SDS011;32722;43.486;2.766;2022-09-01T07:01:05;6.03;;;5.50;;
46971;SDS011;32722;43.486;2.766;2022-09-01T07:03:31;6.43;;;5.45;;
46971;SDS011;32722;43.486;2.766;2022-09-01T07:05:58;6.10;;;5.40;;
46971;SDS011;32722;43.486;2.766;2022-09-01T07:08:28;6.07;;;5.32;;
46971;SDS011;32722;43.486;2.766;2022-09-01T07:10:55;8.45;;;5.65;;
46971;SDS011;32722;43.486;2.766;2022-09-01T07:13:22;5.70;;;5.20;;
46971;SDS011;32722;43.486;2.766;2022-09-01T07:15:50;8.63;;;5.15;;
46971;SDS011;32722;43.486;2.766;2022-09-01T07:18:17;6.32;;;5.32;;
46971;SDS011;32722;43.486;2.766;2022-09-01T07:20:45;8.05;;;6.35;;
46971;SDS011;32722;43.486;2.766;2022-09-01T07:23:13;9.35;;;5.90;;
46971;SDS011;32722;43.486;2.766;2022-09-01T07:25:42;8.48;;;5.80;;
46971;SDS011;32722;43.486;2.766;2022-09-01T07:28:09;11.90;;;5.80;;
46971;SDS011;32722;43.486;2.766;2022-09-01T07:30:40;7.75;;;5.53;;
46971;SDS011;32722;43.486;2.766;2022-09-01T07:33:08;8.02;;;5.55;;
46971;SDS011;32722;43.486;2.766;2022-09-01T07:35:37;6.57;;;5.40;;
46971;SDS011;32722;43.486;2.766;2022-09-01T07:38:07;7.95;;;5.75;;
46971;SDS011;32722;43.486;2.766;2022-09-01T07:40:36;11.27;;;5.57;;
46971;SDS011;32722;43.486;2.766;2022-09-01T07:43:06;5.78;;;5.03;;
46971;SDS011;32722;43.486;2.766;2022-09-01T07:45:34;6.53;;;5.15;;
46971;SDS011;32722;43.486;2.766;2022-09-01T07:48:03;5.50;;;4.93;;
46971;SDS011;32722;43.486;2.766;2022-09-01T07:50:31;5.55;;;4.82;;
46971;SDS011;32722;43.486;2.766;2022-09-01T07:52:58;8.73;;;5.40;;
46971;SDS011;32722;43.486;2.766;2022-09-01T07:55:25;10.10;;;5.35;;
46971;SDS011;32722;43.486;2.766;2022-09-01T07:57:53;6.20;;;5.32;;
46971;SDS011;32722;43.486;2.766;2022-09-01T08:00:19;7.80;;;5.40;;
46971;SDS011;32722;43.486;2.766;2022-09-01T08:02:46;7.10;;;5.28;;
46971;SDS011;32722;43.486;2.766;2022-09-01T08:05:16;6.55;;;5.07;;
46971;SDS011;32722;43.486;2.766;2022-09-01T08:07:47;7.88;;;5.35;;
46971;SDS011;32722;43.486;2.766;2022-09-01T08:10:13;6.07;;;4.70;;
46971;SDS011;32722;43.486;2.766;2022-09-01T08:12:40;5.30;;;4.75;;
46971;SDS011;32722;43.486;2.766;2022-09-01T08:15:06;5.70;;;4.65;;
46971;SDS011;32722;43.486;2.766;2022-09-01T08:17:33;7.70;;;4.97;;
46971;SDS011;32722;43.486;2.766;2022-09-01T08:20:01;5.22;;;4.80;;
46971;SDS011;32722;43.486;2.766;2022-09-01T08:22:27;9.10;;;5.55;;
46971;SDS011;32722;43.486;2.766;2022-09-01T08:24:54;5.80;;;4.95;;
46971;SDS011;32722;43.486;2.766;2022-09-01T08:27:20;10.23;;;4.88;;
46971;SDS011;32722;43.486;2.766;2022-09-01T08:29:46;8.52;;;5.28;;
46971;SDS011;32722;43.486;2.766;2022-09-01T08:32:12;9.35;;;5.40;;
46971;SDS011;32722;43.486;2.766;2022-09-01T08:34:39;7.38;;;5.60;;
46971;SDS011;32722;43.486;2.766;2022-09-01T08:37:07;8.38;;;5.43;;
46971;SDS011;32722;43.486;2.766;2022-09-01T08:39:33;7.05;;;4.95;;
46971;SDS011;32722;43.486;2.766;2022-09-01T08:47:05;8.98;;;4.65;;
46971;SDS011;32722;43.486;2.766;2022-09-01T08:49:32;7.30;;;4.88;;
46971;SDS011;32722;43.486;2.766;2022-09-01T08:54:50;8.75;;;4.88;;
46971;SDS011;32722;43.486;2.766;2022-09-01T08:57:20;5.90;;;5.13;;
46971;SDS011;32722;43.486;2.766;2022-09-01T08:59:48;10.80;;;5.40;;
46971;SDS011;32722;43.486;2.766;2022-09-01T09:10:25;8.27;;;5.07;;
46971;SDS011;32722;43.486;2.766;2022-09-01T09:13:06;8.00;;;4.55;;
46971;SDS011;32722;43.486;2.766;2022-09-01T09:15:45;6.88;;;4.82;;
46971;SDS011;32722;43.486;2.766;2022-09-01T09:20:38;6.32;;;4.90;;
46971;SDS011;32722;43.486;2.766;2022-09-01T09:23:09;5.68;;;4.70;;
46971;SDS011;32722;43.486;2.766;2022-09-01T09:25:36;7.40;;;4.85;;
46971;SDS011;32722;43.486;2.766;2022-09-01T09:28:03;6.93;;;4.93;;
46971;SDS011;32722;43.486;2.766;2022-09-01T09:30:29;9.18;;;5.53;;
46971;SDS011;32722;43.486;2.766;2022-09-01T09:33:03;9.73;;;6.05;;
46971;SDS011;32722;43.486;2.766;2022-09-01T09:35:34;8.55;;;5.35;;
46971;SDS011;32722;43.486;2.766;2022-09-01T09:41:15;6.53;;;4.72;;
46971;SDS011;32722;43.486;2.766;2022-09-01T09:43:44;7.07;;;5.18;;
46971;SDS011;32722;43.486;2.766;2022-09-01T09:46:19;6.70;;;4.90;;
46971;SDS011;32722;43.486;2.766;2022-09-01T09:48:47;7.05;;;5.03;;
46971;SDS011;32722;43.486;2.766;2022-09-01T09:51:18;7.10;;;5.25;;
46971;SDS011;32722;43.486;2.766;2022-09-01T09:53:45;5.88;;;5.28;;
46971;SDS011;32722;43.486;2.766;2022-09-01T09:58:41;8.52;;;5.75;;
46971;SDS011;32722;43.486;2.766;2022-09-01T10:01:12;8.00;;;5.75;;
46971;SDS011;32722;43.486;2.766;2022-09-01T10:03:47;11.00;;;6.20;;
46971;SDS011;32722;43.486;2.766;2022-09-01T10:06:30;7.97;;;5.68;;
46971;SDS011;32722;43.486;2.766;2022-09-01T10:08:56;8.35;;;5.68;;
46971;SDS011;32722;43.486;2.766;2022-09-01T10:11:26;7.43;;;5.28;;
46971;SDS011;32722;43.486;2.766;2022-09-01T10:13:54;8.77;;;5.80;;
46971;SDS011;32722;43.486;2.766;2022-09-01T10:16:30;7.53;;;5.75;;
46971;SDS011;32722;43.486;2.766;2022-09-01T10:18:57;8.63;;;5.43;;
46971;SDS011;32722;43.486;2.766;2022-09-01T10:23:57;6.75;;;5.25;;
46971;SDS011;32722;43.486;2.766;2022-09-01T10:26:45;7.75;;;5.32;;
46971;SDS011;32722;43.486;2.766;2022-09-01T10:29:13;5.88;;;5.25;;
46971;SDS011;32722;43.486;2.766;2022-09-01T10:31:40;8.02;;;5.80;;
46971;SDS011;32722;43.486;2.766;2022-09-01T10:34:06;7.45;;;5.55;;
46971;SDS011;32722;43.486;2.766;2022-09-01T10:36:36;7.53;;;5.97;;
46971;SDS011;32722;43.486;2.766;2022-09-01T10:39:03;8.32;;;5.80;;
46971;SDS011;32722;43.486;2.766;2022-09-01T10:44:17;8.25;;;5.95;;
46971;SDS011;32722;43.486;2.766;2022-09-01T10:46:44;10.88;;;5.65;;
46971;SDS011;32722;43.486;2.766;2022-09-01T10:49:21;8.25;;;5.72;;
46971;SDS011;32722;43.486;2.766;2022-09-01T10:51:47;16.83;;;5.47;;
46971;SDS011;32722;43.486;2.766;2022-09-01T10:56:59;9.43;;;6.07;;
46971;SDS011;32722;43.486;2.766;2022-09-01T10:59:27;19.90;;;6.57;;
46971;SDS011;32722;43.486;2.766;2022-09-01T11:09:23;19.45;;;6.03;;
46971;SDS011;32722;43.486;2.766;2022-09-01T11:22:32;10.55;;;5.93;;
46971;SDS011;32722;43.486;2.766;2022-09-01T11:30:17;8.40;;;5.75;;
46971;SDS011;32722;43.486;2.766;2022-09-01T11:32:44;9.02;;;6.10;;
46971;SDS011;32722;43.486;2.766;2022-09-01T11:35:20;15.80;;;6.53;;
46971;SDS011;32722;43.486;2.766;2022-09-01T11:37:48;11.73;;;5.97;;
46971;SDS011;32722;43.486;2.766;2022-09-01T11:40:22;26.10;;;7.05;;
46971;SDS011;32722;43.486;2.766;2022-09-01T11:42:49;14.02;;;6.63;;
46971;SDS011;32722;43.486;2.766;2022-09-01T11:47:51;19.92;;;6.30;;
46971;SDS011;32722;43.486;2.766;2022-09-01T11:55:28;167.65;;;20.80;;
46971;SDS011;32722;43.486;2.766;2022-09-01T11:57:55;16.35;;;5.80;;
46971;SDS011;32722;43.486;2.766;2022-09-01T12:00:31;20.70;;;6.35;;
46971;SDS011;32722;43.486;2.766;2022-09-01T12:03:02;5.22;;;4.72;;
46971;SDS011;32722;43.486;2.766;2022-09-01T12:05:33;9.68;;;6.05;;
46971;SDS011;32722;43.486;2.766;2022-09-01T12:08:03;9.95;;;5.70;;
46971;SDS011;32722;43.486;2.766;2022-09-01T12:10:32;10.15;;;5.05;;
46971;SDS011;32722;43.486;2.766;2022-09-01T12:13:03;8.38;;;5.65;;
46971;SDS011;32722;43.486;2.766;2022-09-01T12:15:30;6.55;;;5.13;;
46971;SDS011;32722;43.486;2.766;2022-09-01T12:18:10;8.98;;;5.18;;
46971;SDS011;32722;43.486;2.766;2022-09-01T12:20:37;7.18;;;4.60;;
46971;SDS011;32722;43.486;2.766;2022-09-01T12:23:14;10.77;;;5.35;;
46971;SDS011;32722;43.486;2.766;2022-09-01T12:25:41;7.70;;;5.05;;
46971;SDS011;32722;43.486;2.766;2022-09-01T12:28:09;7.35;;;5.07;;
46971;SDS011;32722;43.486;2.766;2022-09-01T12:30:35;8.13;;;5.18;;
46971;SDS011;32722;43.486;2.766;2022-09-01T12:33:04;7.80;;;4.68;;
46971;SDS011;32722;43.486;2.766;2022-09-01T12:35:31;7.28;;;4.90;;
46971;SDS011;32722;43.486;2.766;2022-09-01T12:40:42;7.95;;;4.60;;
46971;SDS011;32722;43.486;2.766;2022-09-01T12:43:09;8.75;;;4.68;;
46971;SDS011;32722;43.486;2.766;2022-09-01T12:45:36;7.00;;;4.22;;
46971;SDS011;32722;43.486;2.766;2022-09-01T12:48:02;4.90;;;4.22;;
46971;SDS011;32722;43.486;2.766;2022-09-01T12:52:59;5.00;;;3.97;;
46971;SDS011;32722;43.486;2.766;2022-09-01T12:55:30;4.88;;;3.58;;
46971;SDS011;32722;43.486;2.766;2022-09-01T13:00:23;7.18;;;3.83;;
46971;SDS011;32722;43.486;2.766;2022-09-01T13:02:51;6.05;;;4.25;;
46971;SDS011;32722;43.486;2.766;2022-09-01T13:08:24;4.07;;;3.70;;
46971;SDS011;32722;43.486;2.766;2022-09-01T13:10:52;5.25;;;3.72;;
46971;SDS011;32722;43.486;2.766;2022-09-01T13:13:18;3.42;;;3.00;;
46971;SDS011;32722;43.486;2.766;2022-09-01T13:15:49;4.72;;;3.13;;
46971;SDS011;32722;43.486;2.766;2022-09-01T13:20:41;2.80;;;2.40;;
46971;SDS011;32722;43.486;2.766;2022-09-01T13:23:08;4.72;;;2.58;;
46971;SDS011;32722;43.486;2.766;2022-09-01T13:25:37;3.90;;;2.50;;
46971;SDS011;32722;43.486;2.766;2022-09-01T13:28:04;5.03;;;2.88;;
46971;SDS011;32722;43.486;2.766;2022-09-01T13:30:31;3.13;;;2.78;;
46971;SDS011;32722;43.486;2.766;2022-09-01T13:32:58;4.97;;;3.50;;
46971;SDS011;32722;43.486;2.766;2022-09-01T13:35:24;4.55;;;3.28;;
46971;SDS011;32722;43.486;2.766;2022-09-01T13:37:50;5.53;;;3.88;;
46971;SDS011;32722;43.486;2.766;2022-09-01T13:40:16;4.35;;;3.28;;
46971;SDS011;32722;43.486;2.766;2022-09-01T13:42:47;5.75;;;3.30;;
46971;SDS011;32722;43.486;2.766;2022-09-01T13:45:14;4.28;;;3.42;;
46971;SDS011;32722;43.486;2.766;2022-09-01T13:47:43;4.05;;;3.67;;
46971;SDS011;32722;43.486;2.766;2022-09-01T13:50:10;3.83;;;3.30;;
46971;SDS011;32722;43.486;2.766;2022-09-01T13:52:45;4.70;;;3.42;;
46971;SDS011;32722;43.486;2.766;2022-09-01T13:55:16;6.05;;;3.35;;
46971;SDS011;32722;43.486;2.766;2022-09-01T13:57:42;4.35;;;3.63;;
46971;SDS011;32722;43.486;2.766;2022-09-01T14:00:10;3.67;;;3.33;;
46971;SDS011;32722;43.486;2.766;2022-09-01T14:02:38;6.00;;;3.40;;
46971;SDS011;32722;43.486;2.766;2022-09-01T14:05:04;5.38;;;3.58;;
46971;SDS011;32722;43.486;2.766;2022-09-01T14:07:31;4.18;;;3.33;;
46971;SDS011;32722;43.486;2.766;2022-09-01T14:09:57;3.97;;;3.25;;
46971;SDS011;32722;43.486;2.766;2022-09-01T14:12:23;3.72;;;3.03;;
46971;SDS011;32722;43.486;2.766;2022-09-01T14:14:50;5.45;;;3.85;;
46971;SDS011;32722;43.486;2.766;2022-09-01T14:17:16;5.22;;;3.40;;
46971;SDS011;32722;43.486;2.766;2022-09-01T14:19:47;3.80;;;3.00;;
46971;SDS011;32722;43.486;2.766;2022-09-01T14:22:13;3.83;;;3.40;;
46971;SDS011;32722;43.486;2.766;2022-09-01T14:24:39;3.35;;;3.05;;
46971;SDS011;32722;43.486;2.766;2022-09-01T14:27:06;3.97;;;3.47;;
46971;SDS011;32722;43.486;2.766;2022-09-01T14:29:32;4.47;;;3.60;;
46971;SDS011;32722;43.486;2.766;2022-09-01T14:31:58;4.88;;;3.50;;
46971;SDS011;32722;43.486;2.766;2022-09-01T14:34:24;11.63;;;3.70;;
46971;SDS011;32722;43.486;2.766;2022-09-01T14:36:50;6.32;;;3.50;;
46971;SDS011;32722;43.486;2.766;2022-09-01T14:39:18;3.97;;;3.67;;
46971;SDS011;32722;43.486;2.766;2022-09-01T14:41:44;4.05;;;3.47;;
46971;SDS011;32722;43.486;2.766;2022-09-01T14:44:10;5.22;;;3.95;;
46971;SDS011;32722;43.486;2.766;2022-09-01T14:46:37;4.60;;;4.18;;
46971;SDS011;32722;43.486;2.766;2022-09-01T14:49:03;3.92;;;3.63;;
46971;SDS011;32722;43.486;2.766;2022-09-01T14:51:31;8.13;;;3.78;;
46971;SDS011;32722;43.486;2.766;2022-09-01T14:53:57;4.25;;;3.53;;
46971;SDS011;32722;43.486;2.766;2022-09-01T14:56:23;6.15;;;3.63;;
46971;SDS011;32722;43.486;2.766;2022-09-01T14:58:50;6.65;;;4.00;;
46971;SDS011;32722;43.486;2.766;2022-09-01T15:01:18;7.63;;;4.05;;
46971;SDS011;32722;43.486;2.766;2022-09-01T15:03:45;4.13;;;3.70;;
46971;SDS011;32722;43.486;2.766;2022-09-01T15:06:12;6.55;;;3.80;;
46971;SDS011;32722;43.486;2.766;2022-09-01T15:08:39;7.53;;;3.63;;
46971;SDS011;32722;43.486;2.766;2022-09-01T15:11:12;4.70;;;3.92;;
46971;SDS011;32722;43.486;2.766;2022-09-01T15:13:38;4.75;;;3.22;;
46971;SDS011;32722;43.486;2.766;2022-09-01T15:16:10;6.07;;;4.13;;
46971;SDS011;32722;43.486;2.766;2022-09-01T15:18:37;5.97;;;3.95;;
46971;SDS011;32722;43.486;2.766;2022-09-01T15:21:04;4.40;;;3.83;;
46971;SDS011;32722;43.486;2.766;2022-09-01T15:23:30;6.10;;;3.70;;
46971;SDS011;32722;43.486;2.766;2022-09-01T15:25:56;4.28;;;3.45;;
46971;SDS011;32722;43.486;2.766;2022-09-01T15:28:23;4.82;;;3.67;;
46971;SDS011;32722;43.486;2.766;2022-09-01T15:30:49;3.83;;;3.30;;
46971;SDS011;32722;43.486;2.766;2022-09-01T15:33:16;9.95;;;3.50;;
46971;SDS011;32722;43.486;2.766;2022-09-01T15:35:43;5.82;;;3.85;;
46971;SDS011;32722;43.486;2.766;2022-09-01T15:38:09;5.25;;;3.72;;
46971;SDS011;32722;43.486;2.766;2022-09-01T15:40:38;4.28;;;3.88;;
46971;SDS011;32722;43.486;2.766;2022-09-01T15:43:04;4.95;;;3.60;;
46971;SDS011;32722;43.486;2.766;2022-09-01T15:45:30;6.22;;;3.92;;
46971;SDS011;32722;43.486;2.766;2022-09-01T15:47:57;8.65;;;3.95;;
46971;SDS011;32722;43.486;2.766;2022-09-01T15:50:23;5.70;;;4.00;;
46971;SDS011;32722;43.486;2.766;2022-09-01T15:52:51;4.90;;;3.13;;
46971;SDS011;32722;43.486;2.766;2022-09-01T15:55:21;3.72;;;3.42;;
46971;SDS011;32722;43.486;2.766;2022-09-01T15:57:47;4.93;;;3.67;;
46971;SDS011;32722;43.486;2.766;2022-09-01T16:00:14;5.57;;;3.60;;
46971;SDS011;32722;43.486;2.766;2022-09-01T16:02:40;5.43;;;3.45;;
46971;SDS011;32722;43.486;2.766;2022-09-01T16:05:07;4.30;;;3.90;;
46971;SDS011;32722;43.486;2.766;2022-09-01T16:07:34;4.60;;;3.67;;
46971;SDS011;32722;43.486;2.766;2022-09-01T16:10:00;6.05;;;3.00;;
46971;SDS011;32722;43.486;2.766;2022-09-01T16:12:26;4.07;;;3.47;;
46971;SDS011;32722;43.486;2.766;2022-09-01T16:14:53;5.15;;;3.50;;